sensor_id;sensor_type;location;lat;lon;timestamp;P1;durP1;ratioP1;P2;durP2;ratioP2
50605;SDS011;36557;53.572;10.170;2023-06-22T00:00:42;3.22;;;2.35;;
50605;SDS011;36557;53.572;10.170;2023-06-22T00:03:09;4.53;;;3.05;;
50605;SDS011;36557;53.572;10.170;2023-06-22T00:05:35;3.08;;;2.40;;
50605;SDS011;36557;53.572;10.170;2023-06-22T00:08:02;4.10;;;2.50;;
50605;SDS011;36557;53.572;10.170;2023-06-22T00:10:29;3.88;;;2.40;;
50605;SDS011;36557;53.572;10.170;2023-06-22T00:12:55;3.58;;;2.60;;
50605;SDS011;36557;53.572;10.170;2023-06-22T00:15:22;3.38;;;2.83;;
50605;SDS011;36557;53.572;10.170;2023-06-22T00:17:48;3.80;;;2.42;;
50605;SDS011;36557;53.572;10.170;2023-06-22T00:20:14;4.90;;;2.47;;
50605;SDS011;36557;53.572;10.170;2023-06-22T00:22:41;3.47;;;2.88;;
50605;SDS011;36557;53.572;10.170;2023-06-22T00:25:08;5.00;;;2.65;;
50605;SDS011;36557;53.572;10.170;2023-06-22T00:27:34;5.88;;;2.60;;
50605;SDS011;36557;53.572;10.170;2023-06-22T00:30:00;5.40;;;2.70;;
50605;SDS011;36557;53.572;10.170;2023-06-22T00:32:26;6.65;;;3.55;;
50605;SDS011;36557;53.572;10.170;2023-06-22T00:34:52;3.58;;;2.53;;
50605;SDS011;36557;53.572;10.170;2023-06-22T00:37:18;4.60;;;2.60;;
50605;SDS011;36557;53.572;10.170;2023-06-22T00:39:47;3.42;;;2.50;;
50605;SDS011;36557;53.572;10.170;2023-06-22T00:42:14;3.63;;;2.53;;
50605;SDS011;36557;53.572;10.170;2023-06-22T00:44:40;3.92;;;2.63;;
50605;SDS011;36557;53.572;10.170;2023-06-22T00:47:06;3.10;;;2.28;;
50605;SDS011;36557;53.572;10.170;2023-06-22T00:49:32;3.88;;;2.53;;
50605;SDS011;36557;53.572;10.170;2023-06-22T00:51:58;5.10;;;3.00;;
50605;SDS011;36557;53.572;10.170;2023-06-22T00:54:24;3.50;;;2.85;;
50605;SDS011;36557;53.572;10.170;2023-06-22T00:56:53;5.10;;;2.88;;
50605;SDS011;36557;53.572;10.170;2023-06-22T00:59:21;5.82;;;2.90;;
50605;SDS011;36557;53.572;10.170;2023-06-22T01:01:47;4.20;;;3.08;;
50605;SDS011;36557;53.572;10.170;2023-06-22T01:04:13;4.57;;;2.95;;
50605;SDS011;36557;53.572;10.170;2023-06-22T01:09:27;3.95;;;2.53;;
50605;SDS011;36557;53.572;10.170;2023-06-22T01:11:57;3.50;;;2.67;;
50605;SDS011;36557;53.572;10.170;2023-06-22T01:14:47;3.90;;;2.40;;
50605;SDS011;36557;53.572;10.170;2023-06-22T01:17:14;3.95;;;2.58;;
50605;SDS011;36557;53.572;10.170;2023-06-22T01:19:49;3.92;;;2.40;;
50605;SDS011;36557;53.572;10.170;2023-06-22T01:22:21;2.78;;;2.33;;
50605;SDS011;36557;53.572;10.170;2023-06-22T01:29:56;3.60;;;2.53;;
50605;SDS011;36557;53.572;10.170;2023-06-22T01:32:29;3.67;;;2.42;;
50605;SDS011;36557;53.572;10.170;2023-06-22T01:34:57;5.28;;;2.75;;
50605;SDS011;36557;53.572;10.170;2023-06-22T01:37:24;5.03;;;2.88;;
50605;SDS011;36557;53.572;10.170;2023-06-22T01:39:51;4.82;;;3.03;;
50605;SDS011;36557;53.572;10.170;2023-06-22T01:42:17;4.65;;;2.97;;
50605;SDS011;36557;53.572;10.170;2023-06-22T01:44:43;3.97;;;2.75;;
50605;SDS011;36557;53.572;10.170;2023-06-22T01:47:09;3.97;;;2.75;;
50605;SDS011;36557;53.572;10.170;2023-06-22T01:49:35;3.75;;;2.53;;
50605;SDS011;36557;53.572;10.170;2023-06-22T01:52:02;7.38;;;3.00;;
50605;SDS011;36557;53.572;10.170;2023-06-22T01:54:28;4.07;;;2.58;;
50605;SDS011;36557;53.572;10.170;2023-06-22T01:56:54;4.85;;;3.05;;
50605;SDS011;36557;53.572;10.170;2023-06-22T01:59:25;4.40;;;2.78;;
50605;SDS011;36557;53.572;10.170;2023-06-22T02:01:54;4.07;;;3.08;;
50605;SDS011;36557;53.572;10.170;2023-06-22T02:04:27;4.63;;;3.13;;
50605;SDS011;36557;53.572;10.170;2023-06-22T02:06:55;4.32;;;3.20;;
50605;SDS011;36557;53.572;10.170;2023-06-22T02:09:22;4.28;;;2.92;;
50605;SDS011;36557;53.572;10.170;2023-06-22T02:11:49;4.20;;;3.17;;
50605;SDS011;36557;53.572;10.170;2023-06-22T02:14:18;4.68;;;3.13;;
50605;SDS011;36557;53.572;10.170;2023-06-22T02:16:44;5.13;;;2.88;;
50605;SDS011;36557;53.572;10.170;2023-06-22T02:19:11;6.22;;;3.38;;
50605;SDS011;36557;53.572;10.170;2023-06-22T02:21:37;5.97;;;3.33;;
50605;SDS011;36557;53.572;10.170;2023-06-22T02:24:04;4.05;;;3.05;;
50605;SDS011;36557;53.572;10.170;2023-06-22T02:26:30;6.32;;;3.10;;
50605;SDS011;36557;53.572;10.170;2023-06-22T02:28:56;7.55;;;3.60;;
50605;SDS011;36557;53.572;10.170;2023-06-22T02:31:22;5.70;;;3.55;;
50605;SDS011;36557;53.572;10.170;2023-06-22T02:33:58;5.45;;;3.70;;
50605;SDS011;36557;53.572;10.170;2023-06-22T02:36:24;5.78;;;3.03;;
50605;SDS011;36557;53.572;10.170;2023-06-22T02:38:52;4.53;;;3.20;;
50605;SDS011;36557;53.572;10.170;2023-06-22T02:41:19;6.90;;;3.63;;
50605;SDS011;36557;53.572;10.170;2023-06-22T02:43:45;4.38;;;3.35;;
50605;SDS011;36557;53.572;10.170;2023-06-22T02:46:12;5.35;;;3.15;;
50605;SDS011;36557;53.572;10.170;2023-06-22T02:48:39;6.88;;;4.05;;
50605;SDS011;36557;53.572;10.170;2023-06-22T02:51:05;5.43;;;3.50;;
50605;SDS011;36557;53.572;10.170;2023-06-22T02:53:32;5.63;;;3.25;;
50605;SDS011;36557;53.572;10.170;2023-06-22T02:55:58;5.90;;;3.85;;
50605;SDS011;36557;53.572;10.170;2023-06-22T02:58:26;5.72;;;3.53;;
50605;SDS011;36557;53.572;10.170;2023-06-22T03:00:52;4.95;;;3.38;;
50605;SDS011;36557;53.572;10.170;2023-06-22T03:03:19;6.13;;;3.92;;
50605;SDS011;36557;53.572;10.170;2023-06-22T03:05:45;5.85;;;3.63;;
50605;SDS011;36557;53.572;10.170;2023-06-22T03:08:11;5.55;;;4.00;;
50605;SDS011;36557;53.572;10.170;2023-06-22T03:10:37;4.55;;;3.75;;
50605;SDS011;36557;53.572;10.170;2023-06-22T03:13:03;5.95;;;3.90;;
50605;SDS011;36557;53.572;10.170;2023-06-22T03:15:30;6.60;;;3.38;;
50605;SDS011;36557;53.572;10.170;2023-06-22T03:17:57;5.18;;;3.83;;
50605;SDS011;36557;53.572;10.170;2023-06-22T03:20:23;6.03;;;3.90;;
50605;SDS011;36557;53.572;10.170;2023-06-22T03:22:51;6.20;;;3.92;;
50605;SDS011;36557;53.572;10.170;2023-06-22T03:25:18;7.47;;;4.28;;
50605;SDS011;36557;53.572;10.170;2023-06-22T03:27:44;6.53;;;4.00;;
50605;SDS011;36557;53.572;10.170;2023-06-22T03:30:10;6.28;;;3.90;;
50605;SDS011;36557;53.572;10.170;2023-06-22T03:32:37;7.43;;;4.18;;
50605;SDS011;36557;53.572;10.170;2023-06-22T03:35:03;5.35;;;4.05;;
50605;SDS011;36557;53.572;10.170;2023-06-22T03:37:31;5.85;;;3.78;;
50605;SDS011;36557;53.572;10.170;2023-06-22T03:39:57;5.55;;;3.70;;
50605;SDS011;36557;53.572;10.170;2023-06-22T03:42:23;5.35;;;4.00;;
50605;SDS011;36557;53.572;10.170;2023-06-22T03:44:49;6.60;;;3.53;;
50605;SDS011;36557;53.572;10.170;2023-06-22T03:47:15;4.97;;;3.60;;
50605;SDS011;36557;53.572;10.170;2023-06-22T03:49:41;8.82;;;3.85;;
50605;SDS011;36557;53.572;10.170;2023-06-22T03:52:07;5.30;;;3.47;;
50605;SDS011;36557;53.572;10.170;2023-06-22T03:54:33;9.68;;;4.57;;
50605;SDS011;36557;53.572;10.170;2023-06-22T03:56:59;7.65;;;4.32;;
50605;SDS011;36557;53.572;10.170;2023-06-22T03:59:26;7.38;;;4.13;;
50605;SDS011;36557;53.572;10.170;2023-06-22T04:01:52;6.88;;;4.22;;
50605;SDS011;36557;53.572;10.170;2023-06-22T04:04:18;5.78;;;4.03;;
50605;SDS011;36557;53.572;10.170;2023-06-22T04:06:44;6.70;;;4.35;;
50605;SDS011;36557;53.572;10.170;2023-06-22T04:09:10;5.25;;;3.75;;
50605;SDS011;36557;53.572;10.170;2023-06-22T04:11:37;6.10;;;3.70;;
50605;SDS011;36557;53.572;10.170;2023-06-22T04:14:03;8.45;;;3.80;;
50605;SDS011;36557;53.572;10.170;2023-06-22T04:16:29;5.97;;;4.05;;
50605;SDS011;36557;53.572;10.170;2023-06-22T04:18:55;7.28;;;4.22;;
50605;SDS011;36557;53.572;10.170;2023-06-22T04:21:21;6.30;;;3.38;;
50605;SDS011;36557;53.572;10.170;2023-06-22T04:23:47;6.65;;;3.90;;
50605;SDS011;36557;53.572;10.170;2023-06-22T04:26:13;7.20;;;3.80;;
50605;SDS011;36557;53.572;10.170;2023-06-22T04:28:40;5.85;;;4.00;;
50605;SDS011;36557;53.572;10.170;2023-06-22T04:31:06;5.93;;;4.00;;
50605;SDS011;36557;53.572;10.170;2023-06-22T04:33:32;7.57;;;3.85;;
50605;SDS011;36557;53.572;10.170;2023-06-22T04:35:58;4.55;;;3.45;;
50605;SDS011;36557;53.572;10.170;2023-06-22T04:38:28;9.68;;;4.45;;
50605;SDS011;36557;53.572;10.170;2023-06-22T04:40:58;5.22;;;3.97;;
50605;SDS011;36557;53.572;10.170;2023-06-22T04:43:26;6.53;;;4.00;;
50605;SDS011;36557;53.572;10.170;2023-06-22T04:45:55;6.00;;;4.13;;
50605;SDS011;36557;53.572;10.170;2023-06-22T04:48:21;7.75;;;3.90;;
50605;SDS011;36557;53.572;10.170;2023-06-22T04:50:47;5.65;;;3.70;;
50605;SDS011;36557;53.572;10.170;2023-06-22T04:53:13;5.38;;;3.97;;
50605;SDS011;36557;53.572;10.170;2023-06-22T04:55:39;7.03;;;3.85;;
50605;SDS011;36557;53.572;10.170;2023-06-22T04:58:06;5.68;;;3.88;;
50605;SDS011;36557;53.572;10.170;2023-06-22T05:00:33;7.38;;;4.25;;
50605;SDS011;36557;53.572;10.170;2023-06-22T05:03:01;6.32;;;4.20;;
50605;SDS011;36557;53.572;10.170;2023-06-22T05:05:28;5.53;;;4.07;;
50605;SDS011;36557;53.572;10.170;2023-06-22T05:07:56;6.93;;;4.50;;
50605;SDS011;36557;53.572;10.170;2023-06-22T05:10:25;6.90;;;4.10;;
50605;SDS011;36557;53.572;10.170;2023-06-22T05:12:51;7.32;;;4.22;;
50605;SDS011;36557;53.572;10.170;2023-06-22T05:15:17;8.48;;;4.55;;
50605;SDS011;36557;53.572;10.170;2023-06-22T05:17:51;8.63;;;4.50;;
50605;SDS011;36557;53.572;10.170;2023-06-22T05:20:17;5.38;;;4.32;;
50605;SDS011;36557;53.572;10.170;2023-06-22T05:22:43;8.50;;;4.45;;
50605;SDS011;36557;53.572;10.170;2023-06-22T05:25:10;7.95;;;4.13;;
50605;SDS011;36557;53.572;10.170;2023-06-22T05:27:36;5.57;;;4.03;;
50605;SDS011;36557;53.572;10.170;2023-06-22T05:30:06;8.48;;;4.32;;
50605;SDS011;36557;53.572;10.170;2023-06-22T05:32:32;6.70;;;4.20;;
50605;SDS011;36557;53.572;10.170;2023-06-22T05:34:59;6.00;;;3.50;;
50605;SDS011;36557;53.572;10.170;2023-06-22T05:37:25;5.28;;;3.45;;
50605;SDS011;36557;53.572;10.170;2023-06-22T05:39:51;6.55;;;3.33;;
50605;SDS011;36557;53.572;10.170;2023-06-22T05:42:19;7.28;;;3.40;;
50605;SDS011;36557;53.572;10.170;2023-06-22T05:44:45;4.38;;;3.15;;
50605;SDS011;36557;53.572;10.170;2023-06-22T05:47:12;8.10;;;3.90;;
50605;SDS011;36557;53.572;10.170;2023-06-22T05:49:38;5.93;;;3.25;;
50605;SDS011;36557;53.572;10.170;2023-06-22T05:52:04;3.47;;;2.95;;
50605;SDS011;36557;53.572;10.170;2023-06-22T05:54:30;4.50;;;2.95;;
50605;SDS011;36557;53.572;10.170;2023-06-22T05:56:56;4.95;;;3.10;;
50605;SDS011;36557;53.572;10.170;2023-06-22T05:59:22;5.45;;;2.95;;
50605;SDS011;36557;53.572;10.170;2023-06-22T06:01:48;4.85;;;2.70;;
50605;SDS011;36557;53.572;10.170;2023-06-22T06:04:18;4.32;;;2.60;;
50605;SDS011;36557;53.572;10.170;2023-06-22T06:06:44;4.22;;;3.03;;
50605;SDS011;36557;53.572;10.170;2023-06-22T06:09:12;5.35;;;3.10;;
50605;SDS011;36557;53.572;10.170;2023-06-22T06:11:39;4.20;;;2.90;;
50605;SDS011;36557;53.572;10.170;2023-06-22T06:14:05;5.25;;;3.08;;
50605;SDS011;36557;53.572;10.170;2023-06-22T06:16:31;3.50;;;2.80;;
50605;SDS011;36557;53.572;10.170;2023-06-22T06:18:57;3.97;;;2.70;;
50605;SDS011;36557;53.572;10.170;2023-06-22T06:21:23;4.07;;;2.55;;
50605;SDS011;36557;53.572;10.170;2023-06-22T06:23:49;3.13;;;2.55;;
50605;SDS011;36557;53.572;10.170;2023-06-22T06:26:15;3.58;;;2.45;;
50605;SDS011;36557;53.572;10.170;2023-06-22T06:28:42;4.80;;;2.58;;
50605;SDS011;36557;53.572;10.170;2023-06-22T06:31:08;3.67;;;2.40;;
50605;SDS011;36557;53.572;10.170;2023-06-22T06:33:35;3.95;;;2.60;;
50605;SDS011;36557;53.572;10.170;2023-06-22T06:36:01;2.67;;;2.28;;
50605;SDS011;36557;53.572;10.170;2023-06-22T06:38:28;3.03;;;2.40;;
50605;SDS011;36557;53.572;10.170;2023-06-22T06:40:55;4.50;;;2.58;;
50605;SDS011;36557;53.572;10.170;2023-06-22T06:43:21;4.20;;;2.60;;
50605;SDS011;36557;53.572;10.170;2023-06-22T06:45:47;5.60;;;2.70;;
50605;SDS011;36557;53.572;10.170;2023-06-22T06:48:13;4.63;;;2.35;;
50605;SDS011;36557;53.572;10.170;2023-06-22T06:50:39;4.53;;;2.58;;
50605;SDS011;36557;53.572;10.170;2023-06-22T06:53:05;4.47;;;2.97;;
50605;SDS011;36557;53.572;10.170;2023-06-22T06:55:31;3.58;;;2.08;;
50605;SDS011;36557;53.572;10.170;2023-06-22T06:57:58;5.80;;;2.38;;
50605;SDS011;36557;53.572;10.170;2023-06-22T07:00:24;3.65;;;2.67;;
50605;SDS011;36557;53.572;10.170;2023-06-22T07:02:51;4.80;;;2.70;;
50605;SDS011;36557;53.572;10.170;2023-06-22T07:05:17;4.75;;;2.50;;
50605;SDS011;36557;53.572;10.170;2023-06-22T07:07:43;5.38;;;2.75;;
50605;SDS011;36557;53.572;10.170;2023-06-22T07:10:09;4.63;;;3.28;;
50605;SDS011;36557;53.572;10.170;2023-06-22T07:12:35;4.60;;;3.10;;
50605;SDS011;36557;53.572;10.170;2023-06-22T07:15:04;3.60;;;2.47;;
50605;SDS011;36557;53.572;10.170;2023-06-22T07:17:33;5.07;;;3.08;;
50605;SDS011;36557;53.572;10.170;2023-06-22T07:19:59;3.65;;;2.70;;
50605;SDS011;36557;53.572;10.170;2023-06-22T07:22:25;3.22;;;2.78;;
50605;SDS011;36557;53.572;10.170;2023-06-22T07:24:50;4.53;;;2.90;;
50605;SDS011;36557;53.572;10.170;2023-06-22T07:27:16;6.15;;;2.88;;
50605;SDS011;36557;53.572;10.170;2023-06-22T07:29:46;4.70;;;3.00;;
50605;SDS011;36557;53.572;10.170;2023-06-22T07:32:11;5.65;;;2.80;;
50605;SDS011;36557;53.572;10.170;2023-06-22T07:34:37;4.55;;;2.97;;
50605;SDS011;36557;53.572;10.170;2023-06-22T07:37:03;2.63;;;2.30;;
50605;SDS011;36557;53.572;10.170;2023-06-22T07:39:29;5.93;;;2.60;;
50605;SDS011;36557;53.572;10.170;2023-06-22T07:41:55;2.47;;;2.13;;
50605;SDS011;36557;53.572;10.170;2023-06-22T07:44:21;4.43;;;2.78;;
50605;SDS011;36557;53.572;10.170;2023-06-22T07:46:47;4.05;;;2.63;;
50605;SDS011;36557;53.572;10.170;2023-06-22T07:49:12;3.70;;;2.53;;
50605;SDS011;36557;53.572;10.170;2023-06-22T07:51:38;3.45;;;2.58;;
50605;SDS011;36557;53.572;10.170;2023-06-22T07:54:04;3.20;;;2.50;;
50605;SDS011;36557;53.572;10.170;2023-06-22T07:56:29;3.50;;;2.45;;
50605;SDS011;36557;53.572;10.170;2023-06-22T07:58:55;4.93;;;2.50;;
50605;SDS011;36557;53.572;10.170;2023-06-22T08:01:23;4.07;;;2.40;;
50605;SDS011;36557;53.572;10.170;2023-06-22T08:03:49;4.40;;;2.30;;
50605;SDS011;36557;53.572;10.170;2023-06-22T08:06:15;4.18;;;2.60;;
50605;SDS011;36557;53.572;10.170;2023-06-22T08:08:41;3.28;;;2.40;;
50605;SDS011;36557;53.572;10.170;2023-06-22T08:11:07;4.40;;;2.10;;
50605;SDS011;36557;53.572;10.170;2023-06-22T08:13:34;4.15;;;2.35;;
50605;SDS011;36557;53.572;10.170;2023-06-22T08:15:59;3.45;;;2.63;;
50605;SDS011;36557;53.572;10.170;2023-06-22T08:18:25;4.28;;;2.40;;
50605;SDS011;36557;53.572;10.170;2023-06-22T08:20:51;4.22;;;2.65;;
50605;SDS011;36557;53.572;10.170;2023-06-22T08:23:17;4.25;;;2.50;;
50605;SDS011;36557;53.572;10.170;2023-06-22T08:25:42;4.90;;;2.28;;
50605;SDS011;36557;53.572;10.170;2023-06-22T08:28:08;4.18;;;2.25;;
50605;SDS011;36557;53.572;10.170;2023-06-22T08:30:34;3.42;;;2.03;;
50605;SDS011;36557;53.572;10.170;2023-06-22T08:32:59;3.92;;;2.10;;
50605;SDS011;36557;53.572;10.170;2023-06-22T08:35:25;4.20;;;2.42;;
50605;SDS011;36557;53.572;10.170;2023-06-22T08:40:21;4.45;;;2.08;;
50605;SDS011;36557;53.572;10.170;2023-06-22T08:42:48;1.85;;;1.63;;
50605;SDS011;36557;53.572;10.170;2023-06-22T08:45:14;2.50;;;1.67;;
50605;SDS011;36557;53.572;10.170;2023-06-22T08:47:40;5.25;;;2.30;;
50605;SDS011;36557;53.572;10.170;2023-06-22T08:50:07;4.40;;;1.85;;
50605;SDS011;36557;53.572;10.170;2023-06-22T08:52:34;3.92;;;1.98;;
50605;SDS011;36557;53.572;10.170;2023-06-22T08:55:00;4.57;;;1.98;;
50605;SDS011;36557;53.572;10.170;2023-06-22T08:57:26;5.07;;;2.38;;
50605;SDS011;36557;53.572;10.170;2023-06-22T08:59:52;2.63;;;1.80;;
50605;SDS011;36557;53.572;10.170;2023-06-22T09:02:18;2.33;;;1.48;;
50605;SDS011;36557;53.572;10.170;2023-06-22T09:04:47;3.47;;;2.20;;
50605;SDS011;36557;53.572;10.170;2023-06-22T09:07:14;2.58;;;2.03;;
50605;SDS011;36557;53.572;10.170;2023-06-22T09:09:47;3.63;;;1.90;;
50605;SDS011;36557;53.572;10.170;2023-06-22T09:12:13;3.95;;;1.88;;
50605;SDS011;36557;53.572;10.170;2023-06-22T09:14:38;2.85;;;1.65;;
50605;SDS011;36557;53.572;10.170;2023-06-22T09:17:04;2.70;;;1.50;;
50605;SDS011;36557;53.572;10.170;2023-06-22T09:19:30;2.33;;;1.58;;
50605;SDS011;36557;53.572;10.170;2023-06-22T09:21:56;2.35;;;1.70;;
50605;SDS011;36557;53.572;10.170;2023-06-22T09:24:22;2.25;;;1.98;;
50605;SDS011;36557;53.572;10.170;2023-06-22T09:26:47;4.05;;;2.05;;
50605;SDS011;36557;53.572;10.170;2023-06-22T09:29:13;2.63;;;1.80;;
50605;SDS011;36557;53.572;10.170;2023-06-22T09:31:39;5.15;;;2.00;;
50605;SDS011;36557;53.572;10.170;2023-06-22T09:34:05;2.40;;;2.00;;
50605;SDS011;36557;53.572;10.170;2023-06-22T09:36:30;3.72;;;2.17;;
50605;SDS011;36557;53.572;10.170;2023-06-22T09:38:56;3.97;;;2.35;;
50605;SDS011;36557;53.572;10.170;2023-06-22T09:41:23;2.97;;;2.00;;
50605;SDS011;36557;53.572;10.170;2023-06-22T09:43:49;3.55;;;2.10;;
50605;SDS011;36557;53.572;10.170;2023-06-22T09:46:16;2.63;;;2.05;;
50605;SDS011;36557;53.572;10.170;2023-06-22T09:48:42;4.00;;;2.20;;
50605;SDS011;36557;53.572;10.170;2023-06-22T09:51:07;3.13;;;2.13;;
50605;SDS011;36557;53.572;10.170;2023-06-22T09:53:33;3.03;;;2.03;;
50605;SDS011;36557;53.572;10.170;2023-06-22T09:56:00;4.85;;;1.90;;
50605;SDS011;36557;53.572;10.170;2023-06-22T09:58:26;3.78;;;2.30;;
50605;SDS011;36557;53.572;10.170;2023-06-22T10:00:52;2.65;;;1.88;;
50605;SDS011;36557;53.572;10.170;2023-06-22T10:03:19;3.15;;;2.35;;
50605;SDS011;36557;53.572;10.170;2023-06-22T10:05:45;2.65;;;2.20;;
50605;SDS011;36557;53.572;10.170;2023-06-22T10:08:11;3.05;;;2.28;;
50605;SDS011;36557;53.572;10.170;2023-06-22T10:10:36;3.15;;;1.80;;
50605;SDS011;36557;53.572;10.170;2023-06-22T10:13:06;2.40;;;1.92;;
50605;SDS011;36557;53.572;10.170;2023-06-22T10:15:36;2.67;;;1.83;;
50605;SDS011;36557;53.572;10.170;2023-06-22T10:18:03;2.42;;;2.20;;
50605;SDS011;36557;53.572;10.170;2023-06-22T10:20:28;5.90;;;2.40;;
50605;SDS011;36557;53.572;10.170;2023-06-22T10:22:54;2.67;;;1.80;;
50605;SDS011;36557;53.572;10.170;2023-06-22T10:25:20;3.95;;;2.45;;
50605;SDS011;36557;53.572;10.170;2023-06-22T10:27:47;2.72;;;1.92;;
50605;SDS011;36557;53.572;10.170;2023-06-22T10:30:13;4.22;;;2.10;;
50605;SDS011;36557;53.572;10.170;2023-06-22T10:32:39;2.92;;;2.10;;
50605;SDS011;36557;53.572;10.170;2023-06-22T10:35:07;4.47;;;2.00;;
50605;SDS011;36557;53.572;10.170;2023-06-22T10:37:35;3.60;;;2.10;;
50605;SDS011;36557;53.572;10.170;2023-06-22T10:40:02;3.47;;;2.50;;
50605;SDS011;36557;53.572;10.170;2023-06-22T10:42:29;3.22;;;2.25;;
50605;SDS011;36557;53.572;10.170;2023-06-22T10:44:54;2.95;;;2.25;;
50605;SDS011;36557;53.572;10.170;2023-06-22T10:47:20;3.63;;;2.13;;
50605;SDS011;36557;53.572;10.170;2023-06-22T10:49:46;4.22;;;2.20;;
50605;SDS011;36557;53.572;10.170;2023-06-22T10:52:11;2.85;;;2.30;;
50605;SDS011;36557;53.572;10.170;2023-06-22T10:54:37;3.17;;;2.38;;
50605;SDS011;36557;53.572;10.170;2023-06-22T10:57:03;3.60;;;2.25;;
50605;SDS011;36557;53.572;10.170;2023-06-22T10:59:29;2.30;;;2.10;;
50605;SDS011;36557;53.572;10.170;2023-06-22T11:01:55;4.70;;;2.15;;
50605;SDS011;36557;53.572;10.170;2023-06-22T11:04:21;2.72;;;1.95;;
50605;SDS011;36557;53.572;10.170;2023-06-22T11:06:48;3.28;;;2.20;;
50605;SDS011;36557;53.572;10.170;2023-06-22T11:09:14;4.18;;;2.20;;
50605;SDS011;36557;53.572;10.170;2023-06-22T11:11:46;3.88;;;2.40;;
50605;SDS011;36557;53.572;10.170;2023-06-22T11:14:12;2.72;;;2.00;;
50605;SDS011;36557;53.572;10.170;2023-06-22T11:16:37;3.42;;;2.30;;
50605;SDS011;36557;53.572;10.170;2023-06-22T11:19:04;3.58;;;2.47;;
50605;SDS011;36557;53.572;10.170;2023-06-22T11:21:30;3.78;;;2.72;;
50605;SDS011;36557;53.572;10.170;2023-06-22T11:23:57;2.13;;;1.75;;
50605;SDS011;36557;53.572;10.170;2023-06-22T11:26:24;4.57;;;2.80;;
50605;SDS011;36557;53.572;10.170;2023-06-22T11:28:52;4.03;;;2.80;;
50605;SDS011;36557;53.572;10.170;2023-06-22T11:31:18;3.63;;;2.60;;
50605;SDS011;36557;53.572;10.170;2023-06-22T11:33:44;4.20;;;2.60;;
50605;SDS011;36557;53.572;10.170;2023-06-22T11:36:11;6.57;;;2.78;;
50605;SDS011;36557;53.572;10.170;2023-06-22T11:38:37;3.40;;;2.70;;
50605;SDS011;36557;53.572;10.170;2023-06-22T11:41:05;6.20;;;2.65;;
50605;SDS011;36557;53.572;10.170;2023-06-22T11:43:31;4.93;;;2.92;;
50605;SDS011;36557;53.572;10.170;2023-06-22T11:45:56;5.55;;;3.22;;
50605;SDS011;36557;53.572;10.170;2023-06-22T11:48:23;5.15;;;2.65;;
50605;SDS011;36557;53.572;10.170;2023-06-22T11:50:50;3.67;;;3.03;;
50605;SDS011;36557;53.572;10.170;2023-06-22T11:53:16;3.83;;;2.97;;
50605;SDS011;36557;53.572;10.170;2023-06-22T11:55:43;4.72;;;2.75;;
50605;SDS011;36557;53.572;10.170;2023-06-22T11:58:12;5.70;;;3.00;;
50605;SDS011;36557;53.572;10.170;2023-06-22T12:00:37;8.32;;;3.30;;
50605;SDS011;36557;53.572;10.170;2023-06-22T12:03:03;3.58;;;2.67;;
50605;SDS011;36557;53.572;10.170;2023-06-22T12:05:29;4.85;;;3.00;;
50605;SDS011;36557;53.572;10.170;2023-06-22T12:10:23;3.63;;;2.95;;
50605;SDS011;36557;53.572;10.170;2023-06-22T12:12:50;4.63;;;3.40;;
50605;SDS011;36557;53.572;10.170;2023-06-22T12:15:15;9.52;;;3.47;;
50605;SDS011;36557;53.572;10.170;2023-06-22T12:17:41;5.28;;;3.17;;
50605;SDS011;36557;53.572;10.170;2023-06-22T12:20:07;3.20;;;2.90;;
50605;SDS011;36557;53.572;10.170;2023-06-22T12:22:33;4.13;;;2.90;;
50605;SDS011;36557;53.572;10.170;2023-06-22T12:24:59;4.28;;;3.22;;
50605;SDS011;36557;53.572;10.170;2023-06-22T12:27:25;4.90;;;2.90;;
50605;SDS011;36557;53.572;10.170;2023-06-22T12:29:51;4.43;;;3.00;;
50605;SDS011;36557;53.572;10.170;2023-06-22T12:32:17;3.10;;;2.80;;
50605;SDS011;36557;53.572;10.170;2023-06-22T12:34:43;5.28;;;3.10;;
50605;SDS011;36557;53.572;10.170;2023-06-22T12:37:09;4.05;;;3.13;;
50605;SDS011;36557;53.572;10.170;2023-06-22T12:39:35;5.35;;;3.10;;
50605;SDS011;36557;53.572;10.170;2023-06-22T12:42:01;3.63;;;2.90;;
50605;SDS011;36557;53.572;10.170;2023-06-22T12:44:27;6.90;;;3.65;;
50605;SDS011;36557;53.572;10.170;2023-06-22T12:46:53;19.83;;;5.40;;
50605;SDS011;36557;53.572;10.170;2023-06-22T12:49:19;4.22;;;3.00;;
50605;SDS011;36557;53.572;10.170;2023-06-22T12:51:45;3.70;;;2.78;;
50605;SDS011;36557;53.572;10.170;2023-06-22T12:54:10;4.15;;;3.25;;
50605;SDS011;36557;53.572;10.170;2023-06-22T12:56:37;4.65;;;3.20;;
50605;SDS011;36557;53.572;10.170;2023-06-22T12:59:03;4.35;;;2.92;;
50605;SDS011;36557;53.572;10.170;2023-06-22T13:01:29;3.75;;;2.88;;
50605;SDS011;36557;53.572;10.170;2023-06-22T13:03:56;3.97;;;3.05;;
50605;SDS011;36557;53.572;10.170;2023-06-22T13:06:23;3.70;;;3.00;;
50605;SDS011;36557;53.572;10.170;2023-06-22T13:08:48;4.63;;;3.05;;
50605;SDS011;36557;53.572;10.170;2023-06-22T13:11:14;5.32;;;3.33;;
50605;SDS011;36557;53.572;10.170;2023-06-22T13:13:40;5.32;;;2.95;;
50605;SDS011;36557;53.572;10.170;2023-06-22T13:16:06;4.25;;;3.10;;
50605;SDS011;36557;53.572;10.170;2023-06-22T13:18:32;3.83;;;3.08;;
50605;SDS011;36557;53.572;10.170;2023-06-22T13:21:00;3.15;;;2.60;;
50605;SDS011;36557;53.572;10.170;2023-06-22T13:23:26;4.03;;;2.95;;
50605;SDS011;36557;53.572;10.170;2023-06-22T13:25:52;4.18;;;3.00;;
50605;SDS011;36557;53.572;10.170;2023-06-22T13:28:18;4.72;;;3.08;;
50605;SDS011;36557;53.572;10.170;2023-06-22T13:30:45;4.13;;;2.92;;
50605;SDS011;36557;53.572;10.170;2023-06-22T13:33:12;4.20;;;3.17;;
50605;SDS011;36557;53.572;10.170;2023-06-22T13:35:38;3.60;;;2.63;;
50605;SDS011;36557;53.572;10.170;2023-06-22T13:38:07;3.72;;;2.90;;
50605;SDS011;36557;53.572;10.170;2023-06-22T13:40:34;5.05;;;2.85;;
50605;SDS011;36557;53.572;10.170;2023-06-22T13:42:59;4.65;;;2.85;;
50605;SDS011;36557;53.572;10.170;2023-06-22T13:45:25;6.13;;;3.20;;
50605;SDS011;36557;53.572;10.170;2023-06-22T13:47:51;3.45;;;2.95;;
50605;SDS011;36557;53.572;10.170;2023-06-22T13:50:17;5.60;;;3.17;;
50605;SDS011;36557;53.572;10.170;2023-06-22T13:52:43;5.03;;;3.10;;
50605;SDS011;36557;53.572;10.170;2023-06-22T13:55:09;3.83;;;3.15;;
50605;SDS011;36557;53.572;10.170;2023-06-22T13:57:35;3.78;;;3.03;;
50605;SDS011;36557;53.572;10.170;2023-06-22T14:00:01;4.63;;;3.85;;
50605;SDS011;36557;53.572;10.170;2023-06-22T14:02:29;3.92;;;3.17;;
50605;SDS011;36557;53.572;10.170;2023-06-22T14:04:55;3.80;;;2.97;;
50605;SDS011;36557;53.572;10.170;2023-06-22T14:07:21;3.67;;;2.90;;
50605;SDS011;36557;53.572;10.170;2023-06-22T14:09:47;7.45;;;3.50;;
50605;SDS011;36557;53.572;10.170;2023-06-22T14:12:13;3.55;;;2.97;;
50605;SDS011;36557;53.572;10.170;2023-06-22T14:14:38;4.20;;;2.97;;
50605;SDS011;36557;53.572;10.170;2023-06-22T14:17:04;6.10;;;3.60;;
50605;SDS011;36557;53.572;10.170;2023-06-22T14:19:30;4.18;;;3.20;;
50605;SDS011;36557;53.572;10.170;2023-06-22T14:21:56;4.47;;;3.28;;
50605;SDS011;36557;53.572;10.170;2023-06-22T14:24:22;4.57;;;3.55;;
50605;SDS011;36557;53.572;10.170;2023-06-22T14:26:48;5.38;;;3.20;;
50605;SDS011;36557;53.572;10.170;2023-06-22T14:29:14;4.40;;;3.22;;
50605;SDS011;36557;53.572;10.170;2023-06-22T14:31:40;7.57;;;3.33;;
50605;SDS011;36557;53.572;10.170;2023-06-22T14:34:05;4.65;;;3.10;;
50605;SDS011;36557;53.572;10.170;2023-06-22T14:36:31;3.97;;;3.20;;
50605;SDS011;36557;53.572;10.170;2023-06-22T14:38:57;6.35;;;3.70;;
50605;SDS011;36557;53.572;10.170;2023-06-22T14:41:23;3.75;;;3.33;;